Time;durP1;ratioP1;P1;durP2;ratioP2;P2;SDS_P1;SDS_P2;PMS_P1;PMS_P2;Temp;Humidity;BMP_temperature;BMP_pressure;BME280_temperature;BME280_humidity;BME280_pressure;Samples;Min_cycle;Max_cycle;Signal;HPM_P1;HPM_P2
2023/03/15 00:01:17;;;;;;;14.95;3.75;;;;;;;;;;5072362;28;20373;-70
2023/03/15 00:03:43;;;;;;;14.10;4.63;;;;;;;;;;5088387;28;20085;-70
2023/03/15 00:06:09;;;;;;;9.15;3.60;;;;;;;;;;5092336;28;20024;-70
2023/03/15 00:08:35;;;;;;;16.65;3.88;;;;;;;;;;5092069;28;20035;-71
2023/03/15 00:11:02;;;;;;;17.75;4.03;;;;;;;;;;5084985;28;20583;-70
2023/03/15 00:13:28;;;;;;;14.02;3.35;;;;;;;;;;5071040;28;20411;-70
2023/03/15 00:15:56;;;;;;;14.05;3.70;;;;;;;;;;5077231;28;20020;-70
2023/03/15 00:18:22;;;;;;;8.25;3.03;;;;;;;;;;5075028;28;20033;-71
2023/03/15 00:20:48;;;;;;;11.43;2.85;;;;;;;;;;5077721;28;20032;-70
2023/03/15 00:23:15;;;;;;;12.93;3.55;;;;;;;;;;5087202;28;20049;-71
2023/03/15 00:25:45;;;;;;;12.15;3.00;;;;;;;;;;5088538;28;20052;-71
2023/03/15 00:28:11;;;;;;;12.15;3.13;;;;;;;;;;5091237;28;20089;-71
2023/03/15 00:30:37;;;;;;;14.25;3.22;;;;;;;;;;5090031;28;20041;-71
2023/03/15 00:33:07;;;;;;;10.60;4.18;;;;;;;;;;5089885;28;20070;-70
2023/03/15 00:35:37;;;;;;;13.88;3.20;;;;;;;;;;5072993;28;20028;-71
2023/03/15 00:38:03;;;;;;;10.90;4.80;;;;;;;;;;5091374;28;20503;-71
2023/03/15 00:40:29;;;;;;;12.15;4.15;;;;;;;;;;5087755;28;20025;-71
2023/03/15 00:42:57;;;;;;;8.77;2.55;;;;;;;;;;5070795;28;20032;-71
2023/03/15 00:45:23;;;;;;;16.98;3.45;;;;;;;;;;5073035;28;20428;-71
2023/03/15 00:47:53;;;;;;;16.00;3.50;;;;;;;;;;5072307;28;20464;-71
2023/03/15 00:50:20;;;;;;;9.63;3.63;;;;;;;;;;5072326;28;20036;-71
2023/03/15 00:52:47;;;;;;;12.45;3.42;;;;;;;;;;5070600;28;20052;-71
2023/03/15 00:55:14;;;;;;;10.90;2.38;;;;;;;;;;5072050;28;20111;-71
2023/03/15 00:57:41;;;;;;;14.07;2.50;;;;;;;;;;5072305;28;20047;-71
2023/03/15 01:00:09;;;;;;;10.25;3.00;;;;;;;;;;5072588;28;20036;-70
2023/03/15 01:02:36;;;;;;;10.43;2.88;;;;;;;;;;5079343;28;20023;-71
2023/03/15 01:05:04;;;;;;;14.73;2.60;;;;;;;;;;5085829;28;20020;-70
2023/03/15 01:07:32;;;;;;;13.38;2.67;;;;;;;;;;5094198;28;20028;-71
2023/03/15 01:10:00;;;;;;;11.80;2.83;;;;;;;;;;5094759;28;20438;-71
2023/03/15 01:12:27;;;;;;;17.23;2.60;;;;;;;;;;5092467;28;20020;-70
2023/03/15 01:14:53;;;;;;;13.20;2.63;;;;;;;;;;5092807;28;20017;-70
2023/03/15 01:17:20;;;;;;;12.20;2.70;;;;;;;;;;5087734;28;20024;-71
2023/03/15 01:19:46;;;;;;;10.70;2.78;;;;;;;;;;5074019;28;20043;-71
2023/03/15 01:22:12;;;;;;;17.83;3.88;;;;;;;;;;5081598;28;20058;-71
2023/03/15 01:24:38;;;;;;;8.60;2.42;;;;;;;;;;5095827;28;20077;-70
2023/03/15 01:27:04;;;;;;;12.13;3.17;;;;;;;;;;5085038;28;20023;-71
2023/03/15 01:29:30;;;;;;;11.20;3.03;;;;;;;;;;5094044;28;20028;-71
2023/03/15 01:31:56;;;;;;;12.02;3.72;;;;;;;;;;5093851;28;20408;-71
2023/03/15 01:34:23;;;;;;;10.07;3.25;;;;;;;;;;5094004;28;20387;-71
2023/03/15 01:36:51;;;;;;;11.15;2.47;;;;;;;;;;5093773;28;20028;-71
2023/03/15 01:39:17;;;;;;;7.97;2.45;;;;;;;;;;5093613;28;20134;-71
2023/03/15 01:41:45;;;;;;;9.35;2.80;;;;;;;;;;5081051;28;20025;-71
2023/03/15 01:44:15;;;;;;;8.35;3.03;;;;;;;;;;5073529;28;20040;-71
2023/03/15 01:46:43;;;;;;;10.32;2.60;;;;;;;;;;5073492;28;20060;-71
2023/03/15 01:49:15;;;;;;;7.97;2.10;;;;;;;;;;5073524;28;20028;-71
2023/03/15 01:51:54;;;;;;;13.68;2.90;;;;;;;;;;5079394;28;20492;-70
2023/03/15 01:54:33;;;;;;;16.38;3.15;;;;;;;;;;5073594;28;20032;-71
2023/03/15 01:57:02;;;;;;;8.77;3.00;;;;;;;;;;5089906;28;20506;-71
2023/03/15 01:59:32;;;;;;;13.13;3.00;;;;;;;;;;5093284;28;20051;-71
2023/03/15 02:01:59;;;;;;;10.65;2.58;;;;;;;;;;5078433;28;20077;-71
2023/03/15 02:04:28;;;;;;;12.38;3.33;;;;;;;;;;5092988;28;20055;-70
2023/03/15 02:06:58;;;;;;;9.70;2.83;;;;;;;;;;5083605;28;20025;-71
2023/03/15 02:09:31;;;;;;;9.07;2.60;;;;;;;;;;5089757;28;20094;-71
2023/03/15 02:11:58;;;;;;;12.73;2.70;;;;;;;;;;5078630;28;20028;-71
2023/03/15 02:14:24;;;;;;;10.65;3.17;;;;;;;;;;5094518;28;20016;-71
2023/03/15 02:16:52;;;;;;;14.50;2.60;;;;;;;;;;5091271;28;20036;-71
2023/03/15 02:19:28;;;;;;;13.50;2.90;;;;;;;;;;5074460;28;20030;-71
2023/03/15 02:22:01;;;;;;;17.10;4.43;;;;;;;;;;5090043;28;20488;-70
2023/03/15 02:24:27;;;;;;;11.35;2.75;;;;;;;;;;5092966;28;20028;-70
2023/03/15 02:26:54;;;;;;;10.45;2.58;;;;;;;;;;5092750;28;20078;-71
2023/03/15 02:29:22;;;;;;;11.13;3.00;;;;;;;;;;5092594;28;20031;-71
2023/03/15 02:31:49;;;;;;;16.67;3.50;;;;;;;;;;5090660;28;20090;-71
2023/03/15 02:34:15;;;;;;;10.23;2.67;;;;;;;;;;5073761;28;20028;-70
2023/03/15 02:36:41;;;;;;;9.20;2.58;;;;;;;;;;5080787;28;20376;-71
2023/03/15 02:39:15;;;;;;;12.48;2.90;;;;;;;;;;5092134;28;20055;-70
2023/03/15 02:41:43;;;;;;;7.47;2.65;;;;;;;;;;5089036;28;20548;-70
2023/03/15 02:44:29;;;;;;;16.33;4.07;;;;;;;;;;5085671;28;20399;-70
2023/03/15 02:46:59;;;;;;;11.30;3.00;;;;;;;;;;5073831;28;20058;-70
2023/03/15 02:49:27;;;;;;;7.95;2.42;;;;;;;;;;5073158;28;20043;-70
2023/03/15 02:51:53;;;;;;;8.88;2.70;;;;;;;;;;5067151;28;20112;-71
2023/03/15 02:54:19;;;;;;;13.30;2.33;;;;;;;;;;5092510;28;20038;-70
2023/03/15 02:56:45;;;;;;;6.78;2.50;;;;;;;;;;5092494;28;20039;-70
2023/03/15 02:59:12;;;;;;;15.43;2.83;;;;;;;;;;5093729;28;20062;-71
2023/03/15 03:01:38;;;;;;;6.70;2.55;;;;;;;;;;5092121;28;20031;-71
2023/03/15 03:04:05;;;;;;;12.20;2.70;;;;;;;;;;5091870;28;20484;-71
2023/03/15 03:06:31;;;;;;;10.07;2.80;;;;;;;;;;5093437;28;20054;-70
2023/03/15 03:09:01;;;;;;;11.20;2.80;;;;;;;;;;5081434;28;20028;-70
2023/03/15 03:11:28;;;;;;;8.88;2.40;;;;;;;;;;5073197;28;20488;-71
2023/03/15 03:13:56;;;;;;;14.35;2.97;;;;;;;;;;5071874;28;20020;-71
2023/03/15 03:16:22;;;;;;;12.32;3.92;;;;;;;;;;5071869;28;20028;-70
2023/03/15 03:18:48;;;;;;;9.85;2.78;;;;;;;;;;5078275;28;20391;-70
2023/03/15 03:21:15;;;;;;;17.00;3.25;;;;;;;;;;5091773;28;20510;-71
2023/03/15 03:23:45;;;;;;;17.48;3.25;;;;;;;;;;5091041;28;20020;-71
2023/03/15 03:26:15;;;;;;;13.52;3.03;;;;;;;;;;5092050;28;20023;-71
2023/03/15 03:28:43;;;;;;;12.02;2.65;;;;;;;;;;5091675;28;20396;-70
2023/03/15 03:31:16;;;;;;;8.63;2.25;;;;;;;;;;5091938;28;20043;-70
2023/03/15 03:33:42;;;;;;;9.18;3.05;;;;;;;;;;5092655;28;20057;-70
2023/03/15 03:36:11;;;;;;;6.93;2.55;;;;;;;;;;5091884;28;20055;-71
2023/03/15 03:38:40;;;;;;;12.65;3.17;;;;;;;;;;5073438;28;20512;-71
2023/03/15 03:41:07;;;;;;;7.28;2.17;;;;;;;;;;5059238;28;20404;-71
2023/03/15 03:43:34;;;;;;;7.57;3.53;;;;;;;;;;5091551;28;20062;-71
2023/03/15 03:46:01;;;;;;;8.52;2.22;;;;;;;;;;5091697;28;20035;-71
2023/03/15 03:48:27;;;;;;;10.10;3.28;;;;;;;;;;5091373;28;20024;-70
2023/03/15 03:50:53;;;;;;;11.38;2.22;;;;;;;;;;5084109;28;20078;-70
2023/03/15 03:53:20;;;;;;;5.75;2.13;;;;;;;;;;5071336;28;20070;-70
2023/03/15 03:55:46;;;;;;;7.70;2.45;;;;;;;;;;5071254;28;20063;-70
2023/03/15 03:58:16;;;;;;;5.63;2.28;;;;;;;;;;5085180;28;20103;-71
2023/03/15 04:00:54;;;;;;;4.32;1.80;;;;;;;;;;5090625;28;20495;-70
2023/03/15 04:03:25;;;;;;;7.65;2.53;;;;;;;;;;5087621;28;20451;-71
2023/03/15 04:05:54;;;;;;;11.38;2.78;;;;;;;;;;5086060;28;20492;-70
2023/03/15 04:08:23;;;;;;;5.53;2.70;;;;;;;;;;5087088;28;20531;-70
2023/03/15 04:10:54;;;;;;;7.22;2.20;;;;;;;;;;5091016;28;20028;-71
2023/03/15 04:13:22;;;;;;;5.40;2.17;;;;;;;;;;5090522;28;20036;-70
2023/03/15 04:15:48;;;;;;;12.73;2.70;;;;;;;;;;5070669;28;20105;-70
2023/03/15 04:18:15;;;;;;;4.60;2.30;;;;;;;;;;5071205;28;20028;-71
2023/03/15 04:20:46;;;;;;;5.43;2.58;;;;;;;;;;5075829;28;20028;-71
2023/03/15 04:23:14;;;;;;;6.68;3.33;;;;;;;;;;5071214;28;20029;-71
2023/03/15 04:25:56;;;;;;;11.20;3.03;;;;;;;;;;5072231;28;20073;-71
2023/03/15 04:28:50;;;;;;;8.55;2.83;;;;;;;;;;5071116;28;20139;-70
2023/03/15 04:31:36;;;;;;;12.95;2.80;;;;;;;;;;5072607;28;20553;-70
2023/03/15 04:34:32;;;;;;;12.70;2.60;;;;;;;;;;5068048;28;20513;-70
2023/03/15 04:37:11;;;;;;;13.63;2.97;;;;;;;;;;5094101;28;20058;-70
2023/03/15 04:40:00;;;;;;;7.15;2.67;;;;;;;;;;5072874;28;20052;-70
2023/03/15 04:42:55;;;;;;;10.15;2.83;;;;;;;;;;5089439;28;20457;-70
2023/03/15 04:45:33;;;;;;;6.22;2.30;;;;;;;;;;5085849;28;20408;-70
2023/03/15 04:48:35;;;;;;;13.70;3.67;;;;;;;;;;5062129;28;20496;-70
2023/03/15 04:51:28;;;;;;;7.90;4.18;;;;;;;;;;5075092;28;20048;-70
2023/03/15 04:54:14;;;;;;;6.72;2.13;;;;;;;;;;5074575;28;20044;-70
2023/03/15 04:57:02;;;;;;;11.02;2.67;;;;;;;;;;5074127;28;20404;-70
2023/03/15 04:59:46;;;;;;;8.80;2.20;;;;;;;;;;5074394;28;20094;-70
2023/03/15 05:02:33;;;;;;;18.63;4.82;;;;;;;;;;5073521;28;20029;-71
2023/03/15 05:05:20;;;;;;;9.02;2.47;;;;;;;;;;5078529;28;20043;-70
2023/03/15 05:07:58;;;;;;;15.50;2.85;;;;;;;;;;5093913;28;20484;-70
2023/03/15 05:10:36;;;;;;;9.98;2.00;;;;;;;;;;5091448;28;20460;-70
2023/03/15 05:13:17;;;;;;;6.15;2.80;;;;;;;;;;5073711;28;20059;-70
2023/03/15 05:16:02;;;;;;;9.85;3.75;;;;;;;;;;5075324;28;20104;-70
2023/03/15 05:18:55;;;;;;;8.50;2.85;;;;;;;;;;5048149;28;20029;-71
2023/03/15 05:21:57;;;;;;;12.85;3.13;;;;;;;;;;5009389;28;20066;-71
2023/03/15 05:24:38;;;;;;;8.00;2.65;;;;;;;;;;4994155;28;20034;-71
2023/03/15 05:27:19;;;;;;;7.20;2.97;;;;;;;;;;4993496;28;20198;-70
2023/03/15 05:30:13;;;;;;;8.20;2.83;;;;;;;;;;5006835;28;20034;-70
2023/03/15 05:33:08;;;;;;;8.00;4.03;;;;;;;;;;5000946;28;20022;-70
2023/03/15 05:35:43;;;;;;;7.38;2.33;;;;;;;;;;5007052;28;20117;-70
2023/03/15 05:38:30;;;;;;;9.13;2.63;;;;;;;;;;5004047;28;20038;-70
2023/03/15 05:41:35;;;;;;;7.65;2.97;;;;;;;;;;4981524;28;20034;-70
2023/03/15 05:44:39;;;;;;;6.93;2.35;;;;;;;;;;4950760;28;20495;-70
2023/03/15 05:47:24;;;;;;;8.07;2.60;;;;;;;;;;4953468;28;20033;-70
2023/03/15 05:50:22;;;;;;;7.32;2.60;;;;;;;;;;4935975;28;20062;-70
2023/03/15 05:53:13;;;;;;;11.75;3.38;;;;;;;;;;4959188;28;20055;-70
2023/03/15 05:55:47;;;;;;;9.80;2.92;;;;;;;;;;4958512;28;20046;-70
2023/03/15 05:58:13;;;;;;;6.90;3.10;;;;;;;;;;4979515;28;20430;-70
2023/03/15 06:01:00;;;;;;;12.35;2.92;;;;;;;;;;4981636;28;20619;-70
2023/03/15 06:03:44;;;;;;;10.15;3.15;;;;;;;;;;4982281;28;20057;-70
2023/03/15 06:06:18;;;;;;;13.38;3.75;;;;;;;;;;4965283;28;20039;-70
2023/03/15 06:08:45;;;;;;;11.95;3.25;;;;;;;;;;4957322;28;20092;-70
2023/03/15 06:11:11;;;;;;;10.18;3.53;;;;;;;;;;4956980;28;20023;-70
2023/03/15 06:13:38;;;;;;;8.98;3.33;;;;;;;;;;4990227;28;20058;-71
2023/03/15 06:16:11;;;;;;;7.78;2.60;;;;;;;;;;5059287;28;20036;-72
2023/03/15 06:18:42;;;;;;;9.25;3.00;;;;;;;;;;5079359;28;20452;-79
2023/03/15 06:21:08;;;;;;;9.98;2.88;;;;;;;;;;5090349;28;20031;-79
2023/03/15 06:23:35;;;;;;;7.35;2.55;;;;;;;;;;5083069;28;20012;-78
2023/03/15 06:26:01;;;;;;;5.00;2.63;;;;;;;;;;5078246;28;20444;-73
2023/03/15 06:28:28;;;;;;;16.95;3.13;;;;;;;;;;5063724;28;20060;-73
2023/03/15 06:30:58;;;;;;;5.80;2.92;;;;;;;;;;5078084;28;20403;-72
2023/03/15 06:33:32;;;;;;;17.17;3.80;;;;;;;;;;5077394;28;20016;-72
2023/03/15 06:35:59;;;;;;;9.07;3.63;;;;;;;;;;5077927;28;20420;-72
2023/03/15 06:38:26;;;;;;;9.02;4.05;;;;;;;;;;5080466;28;20046;-73
2023/03/15 06:40:54;;;;;;;6.22;3.17;;;;;;;;;;5076349;28;20841;-72
2023/03/15 06:43:21;;;;;;;5.97;3.42;;;;;;;;;;5075842;28;20054;-73
2023/03/15 06:45:48;;;;;;;6.95;3.15;;;;;;;;;;5072394;28;20032;-71
2023/03/15 06:48:15;;;;;;;14.43;4.10;;;;;;;;;;5082865;28;20020;-71
2023/03/15 06:50:41;;;;;;;11.73;3.17;;;;;;;;;;5079445;28;20476;-71
2023/03/15 06:53:08;;;;;;;14.60;3.83;;;;;;;;;;5089018;28;20376;-71
2023/03/15 06:55:34;;;;;;;9.88;2.83;;;;;;;;;;5090151;28;20028;-71
2023/03/15 06:58:00;;;;;;;11.57;3.35;;;;;;;;;;5083104;28;20126;-71
2023/03/15 07:00:26;;;;;;;8.55;3.25;;;;;;;;;;5091095;28;20020;-71
2023/03/15 07:02:53;;;;;;;6.32;2.72;;;;;;;;;;5077569;28;21574;-71
2023/03/15 07:05:19;;;;;;;6.10;3.70;;;;;;;;;;5090565;28;20025;-71
2023/03/15 07:07:45;;;;;;;6.55;3.00;;;;;;;;;;5086865;28;20515;-69
2023/03/15 07:10:11;;;;;;;12.25;2.95;;;;;;;;;;5088553;28;20065;-69
2023/03/15 07:12:37;;;;;;;9.82;2.83;;;;;;;;;;5088236;28;20428;-69
2023/03/15 07:15:03;;;;;;;10.65;3.85;;;;;;;;;;5086263;28;20024;-69
2023/03/15 07:17:30;;;;;;;16.05;3.38;;;;;;;;;;5103730;28;20455;-70
2023/03/15 07:19:56;;;;;;;12.05;3.85;;;;;;;;;;5087188;28;20448;-70
2023/03/15 07:22:22;;;;;;;14.95;3.70;;;;;;;;;;5080938;28;20039;-69
2023/03/15 07:24:48;;;;;;;10.30;3.92;;;;;;;;;;5071818;28;20341;-70
2023/03/15 07:27:14;;;;;;;13.05;3.13;;;;;;;;;;5080979;28;20023;-70
2023/03/15 07:29:41;;;;;;;14.55;3.40;;;;;;;;;;5082951;28;20024;-70
2023/03/15 07:32:07;;;;;;;22.50;5.28;;;;;;;;;;5084580;28;20038;-70
2023/03/15 07:34:33;;;;;;;7.95;2.83;;;;;;;;;;5084852;28;20077;-70
2023/03/15 07:36:59;;;;;;;13.55;2.90;;;;;;;;;;5080873;28;20399;-70
2023/03/15 07:39:25;;;;;;;8.52;3.33;;;;;;;;;;5082721;28;20047;-70
2023/03/15 07:41:52;;;;;;;5.45;2.55;;;;;;;;;;5077425;28;20028;-69
2023/03/15 07:44:30;;;;;;;16.15;3.33;;;;;;;;;;5078121;28;20099;-69
2023/03/15 07:46:56;;;;;;;11.77;2.78;;;;;;;;;;5085604;28;20019;-69
2023/03/15 07:49:22;;;;;;;8.43;2.83;;;;;;;;;;5085843;28;20047;-69
2023/03/15 07:51:48;;;;;;;14.45;2.30;;;;;;;;;;5076591;28;20036;-69
2023/03/15 07:54:14;;;;;;;7.93;2.47;;;;;;;;;;5083493;28;20110;-69
2023/03/15 07:56:40;;;;;;;8.52;2.50;;;;;;;;;;5078196;28;20165;-69
2023/03/15 07:59:06;;;;;;;7.70;3.58;;;;;;;;;;5082064;28;20032;-69
2023/03/15 08:01:32;;;;;;;13.75;2.47;;;;;;;;;;5081566;28;20037;-69
2023/03/15 08:03:58;;;;;;;14.52;3.42;;;;;;;;;;5083847;28;20400;-69
2023/03/15 08:06:25;;;;;;;11.48;2.60;;;;;;;;;;5078771;28;20029;-69
2023/03/15 08:08:51;;;;;;;7.85;2.60;;;;;;;;;;5085227;28;20030;-69
2023/03/15 08:11:17;;;;;;;13.13;2.47;;;;;;;;;;5080835;28;20070;-69
2023/03/15 08:13:43;;;;;;;21.23;2.95;;;;;;;;;;5091877;28;20028;-69
2023/03/15 08:16:09;;;;;;;9.75;3.05;;;;;;;;;;5091628;28;20024;-69
2023/03/15 08:18:35;;;;;;;14.77;3.97;;;;;;;;;;5087945;28;20032;-70
2023/03/15 08:21:03;;;;;;;16.27;3.22;;;;;;;;;;5088286;28;20103;-70
2023/03/15 08:23:29;;;;;;;19.80;3.80;;;;;;;;;;5086914;28;20027;-70
2023/03/15 08:25:55;;;;;;;15.15;3.28;;;;;;;;;;5090824;28;20031;-70
2023/03/15 08:28:21;;;;;;;11.52;3.28;;;;;;;;;;5085081;28;20094;-70
2023/03/15 08:30:47;;;;;;;17.63;3.10;;;;;;;;;;5083737;28;20028;-70
2023/03/15 08:33:14;;;;;;;16.08;3.35;;;;;;;;;;5086582;28;20048;-70
2023/03/15 08:35:40;;;;;;;21.85;3.35;;;;;;;;;;5091531;28;20020;-70
2023/03/15 08:38:08;;;;;;;21.60;3.40;;;;;;;;;;5091338;28;20063;-70
2023/03/15 08:40:34;;;;;;;15.55;3.45;;;;;;;;;;5092810;28;20040;-70
2023/03/15 08:43:00;;;;;;;22.67;5.03;;;;;;;;;;5089018;28;20036;-71
2023/03/15 08:45:26;;;;;;;15.35;4.60;;;;;;;;;;5094560;28;20028;-71
2023/03/15 08:47:56;;;;;;;23.77;4.13;;;;;;;;;;5092978;28;20054;-71
2023/03/15 08:50:23;;;;;;;16.35;4.00;;;;;;;;;;5086726;28;20027;-71
2023/03/15 08:52:49;;;;;;;10.20;3.22;;;;;;;;;;5084604;28;20108;-73
2023/03/15 08:55:16;;;;;;;23.40;3.55;;;;;;;;;;5085381;28;20032;-74
2023/03/15 08:57:43;;;;;;;14.95;3.35;;;;;;;;;;5090508;28;20214;-73
2023/03/15 09:00:21;;;;;;;18.27;4.55;;;;;;;;;;5081181;28;20407;-73
2023/03/15 09:02:51;;;;;;;15.52;3.30;;;;;;;;;;5081132;28;20419;-73
2023/03/15 09:05:17;;;;;;;14.23;2.80;;;;;;;;;;5078758;28;20024;-73
2023/03/15 09:07:44;;;;;;;14.88;2.58;;;;;;;;;;5094770;28;20023;-73
2023/03/15 09:10:13;;;;;;;14.27;2.40;;;;;;;;;;5067154;28;20381;-73
2023/03/15 09:12:40;;;;;;;16.90;2.42;;;;;;;;;;5079826;28;20373;-73
2023/03/15 09:15:06;;;;;;;16.40;2.70;;;;;;;;;;5091166;28;20503;-73
2023/03/15 09:17:32;;;;;;;8.30;2.00;;;;;;;;;;5091294;28;20064;-73
2023/03/15 09:19:58;;;;;;;10.55;2.13;;;;;;;;;;5089585;28;20051;-73
2023/03/15 09:22:25;;;;;;;17.40;3.10;;;;;;;;;;5085799;28;20032;-73
2023/03/15 09:24:51;;;;;;;20.65;5.18;;;;;;;;;;5094661;28;20089;-73
2023/03/15 09:27:17;;;;;;;16.80;2.78;;;;;;;;;;5083131;28;20098;-73
2023/03/15 09:29:43;;;;;;;11.70;2.67;;;;;;;;;;5083899;28;20074;-73
2023/03/15 09:32:10;;;;;;;22.58;4.15;;;;;;;;;;5087687;28;20093;-73
2023/03/15 09:34:37;;;;;;;11.77;2.00;;;;;;;;;;5080461;28;20517;-73
2023/03/15 09:37:04;;;;;;;12.48;3.45;;;;;;;;;;5092450;28;20024;-73
2023/03/15 09:39:32;;;;;;;11.25;2.35;;;;;;;;;;5077455;28;20079;-73
2023/03/15 09:42:00;;;;;;;9.80;1.85;;;;;;;;;;5090053;28;20590;-73
2023/03/15 09:44:51;;;;;;;13.38;2.38;;;;;;;;;;5080571;28;20019;-73
2023/03/15 09:47:20;;;;;;;14.70;2.05;;;;;;;;;;5083327;28;20024;-73
2023/03/15 09:49:51;;;;;;;12.68;3.63;;;;;;;;;;5083825;28;20017;-73
2023/03/15 09:52:33;;;;;;;17.13;2.75;;;;;;;;;;5085468;28;20115;-73
2023/03/15 09:55:00;;;;;;;9.95;2.38;;;;;;;;;;5091767;28;20039;-73
2023/03/15 09:57:35;;;;;;;13.90;2.25;;;;;;;;;;5084289;28;20036;-73
2023/03/15 10:00:04;;;;;;;18.30;2.30;;;;;;;;;;5081614;28;20483;-73
2023/03/15 10:02:35;;;;;;;23.88;2.72;;;;;;;;;;5085765;28;20044;-73
2023/03/15 10:05:05;;;;;;;16.25;2.30;;;;;;;;;;5062267;28;20021;-73
2023/03/15 10:07:32;;;;;;;11.65;2.35;;;;;;;;;;5079991;28;20020;-73
2023/03/15 10:09:58;;;;;;;15.43;2.60;;;;;;;;;;5085043;28;20476;-73
2023/03/15 10:12:39;;;;;;;11.40;1.90;;;;;;;;;;5089941;28;20048;-74
2023/03/15 10:15:21;;;;;;;15.05;2.58;;;;;;;;;;5078919;28;20063;-74
2023/03/15 10:17:56;;;;;;;11.02;2.78;;;;;;;;;;5085242;28;20020;-73
2023/03/15 10:20:24;;;;;;;10.50;1.95;;;;;;;;;;5084567;28;20237;-73
2023/03/15 10:22:56;;;;;;;12.77;2.40;;;;;;;;;;5082705;28;20565;-74
2023/03/15 10:25:27;;;;;;;9.40;2.28;;;;;;;;;;5082455;28;20085;-74
2023/03/15 10:27:58;;;;;;;13.27;4.15;;;;;;;;;;5083097;28;20108;-74
2023/03/15 10:30:26;;;;;;;13.30;2.17;;;;;;;;;;5078652;28;20020;-73
2023/03/15 10:32:55;;;;;;;16.20;2.80;;;;;;;;;;5084487;28;20020;-74
2023/03/15 10:35:21;;;;;;;9.70;1.88;;;;;;;;;;5079496;28;20031;-74
2023/03/15 10:37:48;;;;;;;17.20;2.25;;;;;;;;;;5088321;28;20081;-73
2023/03/15 10:40:15;;;;;;;11.40;2.55;;;;;;;;;;5077206;28;20112;-73
2023/03/15 10:42:43;;;;;;;9.40;1.70;;;;;;;;;;5083217;28;20067;-73
2023/03/15 10:45:22;;;;;;;12.65;1.90;;;;;;;;;;5081251;28;20095;-73
2023/03/15 10:47:49;;;;;;;11.05;2.42;;;;;;;;;;5086236;28;20016;-73
2023/03/15 10:50:26;;;;;;;9.82;1.63;;;;;;;;;;5080178;28;20012;-73
2023/03/15 10:52:56;;;;;;;9.38;1.70;;;;;;;;;;5080940;28;20491;-73
2023/03/15 10:55:51;;;;;;;6.72;1.52;;;;;;;;;;5082543;28;20523;-73
2023/03/15 10:58:17;;;;;;;12.48;1.83;;;;;;;;;;5066948;28;20039;-73
2023/03/15 11:00:51;;;;;;;13.82;1.90;;;;;;;;;;5081620;28;20032;-71
2023/03/15 11:03:17;;;;;;;11.57;2.05;;;;;;;;;;5084309;28;20054;-70
2023/03/15 11:05:45;;;;;;;8.05;1.65;;;;;;;;;;5089519;28;20008;-70
2023/03/15 11:08:14;;;;;;;8.02;1.80;;;;;;;;;;5079550;28;20035;-70
2023/03/15 11:10:40;;;;;;;14.13;2.67;;;;;;;;;;5087622;28;20441;-70
2023/03/15 11:13:19;;;;;;;16.70;2.15;;;;;;;;;;5076750;28;20032;-70
2023/03/15 11:16:03;;;;;;;10.90;1.90;;;;;;;;;;5079338;28;20372;-70
2023/03/15 11:18:37;;;;;;;10.35;2.08;;;;;;;;;;5078873;28;20020;-70
2023/03/15 11:21:06;;;;;;;12.65;1.85;;;;;;;;;;5082656;28;20112;-70
2023/03/15 11:23:35;;;;;;;8.50;2.33;;;;;;;;;;5080782;28;20024;-70
2023/03/15 11:26:01;;;;;;;10.77;1.70;;;;;;;;;;5078077;28;20032;-70
2023/03/15 11:28:29;;;;;;;13.63;2.50;;;;;;;;;;5082237;28;20020;-69
2023/03/15 11:30:59;;;;;;;8.30;1.77;;;;;;;;;;5080225;28;20032;-69
2023/03/15 11:33:37;;;;;;;9.70;1.73;;;;;;;;;;5078837;28;20154;-69
2023/03/15 11:36:06;;;;;;;7.18;1.50;;;;;;;;;;5073964;28;20036;-70
2023/03/15 11:38:35;;;;;;;17.75;2.03;;;;;;;;;;5080727;28;20047;-69
2023/03/15 11:41:05;;;;;;;5.15;1.60;;;;;;;;;;5079222;28;20055;-69
2023/03/15 11:43:47;;;;;;;15.40;1.67;;;;;;;;;;5083452;28;20020;-69
2023/03/15 11:46:24;;;;;;;21.20;1.90;;;;;;;;;;5076139;28;20017;-69
2023/03/15 11:48:55;;;;;;;11.25;1.42;;;;;;;;;;5077865;28;20504;-69
2023/03/15 11:51:21;;;;;;;7.38;1.90;;;;;;;;;;5080444;28;20420;-70
2023/03/15 11:53:50;;;;;;;14.55;3.22;;;;;;;;;;5075052;28;20457;-70
2023/03/15 11:56:19;;;;;;;9.15;1.60;;;;;;;;;;5078684;28;20028;-69
2023/03/15 11:59:02;;;;;;;5.68;1.58;;;;;;;;;;5081740;28;20039;-70
2023/03/15 12:01:29;;;;;;;11.82;1.58;;;;;;;;;;5081630;28;20084;-69
2023/03/15 12:04:13;;;;;;;6.88;1.75;;;;;;;;;;5080292;28;20093;-70
2023/03/15 12:06:40;;;;;;;9.63;2.45;;;;;;;;;;5076415;28;20016;-69
2023/03/15 12:09:24;;;;;;;9.20;1.45;;;;;;;;;;5079717;28;20024;-70
2023/03/15 12:11:51;;;;;;;12.18;2.03;;;;;;;;;;5077051;28;20036;-70
2023/03/15 12:14:28;;;;;;;18.23;1.98;;;;;;;;;;5071138;28;20078;-70
2023/03/15 12:17:14;;;;;;;6.07;1.55;;;;;;;;;;5077847;28;20027;-69
2023/03/15 12:19:40;;;;;;;7.93;1.45;;;;;;;;;;5080622;28;20403;-70
2023/03/15 12:22:13;;;;;;;9.65;1.50;;;;;;;;;;5080494;28;20044;-70
2023/03/15 12:24:40;;;;;;;10.98;1.70;;;;;;;;;;5081131;28;20028;-70
2023/03/15 12:27:13;;;;;;;6.40;1.42;;;;;;;;;;5084178;28;20087;-70
2023/03/15 12:29:40;;;;;;;3.28;1.20;;;;;;;;;;5084905;28;20465;-69
2023/03/15 12:32:16;;;;;;;7.97;1.67;;;;;;;;;;5080789;28;20154;-70
2023/03/15 12:34:49;;;;;;;13.10;2.13;;;;;;;;;;5080541;28;20039;-70
2023/03/15 12:37:16;;;;;;;10.27;2.13;;;;;;;;;;5087746;28;20157;-71
2023/03/15 12:39:44;;;;;;;8.10;1.60;;;;;;;;;;5088911;28;20512;-70
2023/03/15 12:42:32;;;;;;;7.90;1.85;;;;;;;;;;5075581;28;20025;-70
2023/03/15 12:45:16;;;;;;;9.27;2.03;;;;;;;;;;5083178;28;20055;-70
2023/03/15 12:47:45;;;;;;;9.07;2.00;;;;;;;;;;5079295;28;20093;-70
2023/03/15 12:50:30;;;;;;;7.50;1.50;;;;;;;;;;5083191;28;20032;-71
2023/03/15 12:52:59;;;;;;;7.65;1.52;;;;;;;;;;5086098;28;20119;-71
2023/03/15 12:55:28;;;;;;;6.28;2.00;;;;;;;;;;5090274;28;20550;-70
2023/03/15 12:57:56;;;;;;;13.27;2.13;;;;;;;;;;5078430;28;20031;-70
2023/03/15 13:00:26;;;;;;;10.77;1.77;;;;;;;;;;5083334;28;20032;-70
2023/03/15 13:03:06;;;;;;;13.63;1.80;;;;;;;;;;5075403;28;20079;-71
2023/03/15 13:05:42;;;;;;;4.25;1.60;;;;;;;;;;5079212;28;20084;-71
2023/03/15 13:08:15;;;;;;;6.35;1.52;;;;;;;;;;5091648;28;20020;-71
2023/03/15 13:10:50;;;;;;;8.02;1.80;;;;;;;;;;5085678;28;20028;-71
2023/03/15 13:13:29;;;;;;;15.02;1.77;;;;;;;;;;5074402;28;20037;-71
2023/03/15 13:15:58;;;;;;;8.50;2.15;;;;;;;;;;5089355;28;20445;-71
2023/03/15 13:18:26;;;;;;;6.93;1.38;;;;;;;;;;5081247;28;20067;-71
2023/03/15 13:21:11;;;;;;;9.13;1.77;;;;;;;;;;5084780;28;20032;-71
2023/03/15 13:23:42;;;;;;;6.68;1.95;;;;;;;;;;5089586;28;20031;-71
2023/03/15 13:26:09;;;;;;;9.35;1.90;;;;;;;;;;5089400;28;20044;-70
2023/03/15 13:28:41;;;;;;;10.05;1.60;;;;;;;;;;5089527;28;20020;-71
2023/03/15 13:31:12;;;;;;;11.02;1.60;;;;;;;;;;5086218;28;20515;-71
2023/03/15 13:33:38;;;;;;;10.80;1.70;;;;;;;;;;5083439;28;20032;-71
2023/03/15 13:36:15;;;;;;;6.78;1.40;;;;;;;;;;5080793;28;20800;-71
2023/03/15 13:38:45;;;;;;;6.13;1.20;;;;;;;;;;5091240;28;20504;-71
2023/03/15 13:41:16;;;;;;;6.28;1.50;;;;;;;;;;5088711;28;20099;-71
2023/03/15 13:43:43;;;;;;;4.72;1.40;;;;;;;;;;5083177;28;20051;-71
2023/03/15 13:46:09;;;;;;;9.27;1.58;;;;;;;;;;5087366;28;20086;-71
2023/03/15 13:48:37;;;;;;;9.70;2.28;;;;;;;;;;5091248;28;20077;-70
2023/03/15 13:51:12;;;;;;;14.40;3.22;;;;;;;;;;5090466;28;20024;-70
2023/03/15 13:53:39;;;;;;;9.77;2.00;;;;;;;;;;5087381;28;20739;-70
2023/03/15 13:56:06;;;;;;;6.63;1.50;;;;;;;;;;5091285;28;20031;-70
2023/03/15 13:58:32;;;;;;;7.88;1.60;;;;;;;;;;5081460;28;20031;-70
2023/03/15 14:01:00;;;;;;;9.25;1.50;;;;;;;;;;5091667;28;20024;-70
2023/03/15 14:03:27;;;;;;;8.02;1.58;;;;;;;;;;5080857;28;20389;-70
2023/03/15 14:05:54;;;;;;;4.00;1.20;;;;;;;;;;5081183;28;20024;-70
2023/03/15 14:08:28;;;;;;;5.05;1.00;;;;;;;;;;5079139;28;20025;-70
2023/03/15 14:11:08;;;;;;;6.53;1.58;;;;;;;;;;5078253;28;20036;-70
2023/03/15 14:13:58;;;;;;;4.80;1.02;;;;;;;;;;5088655;28;20029;-70
2023/03/15 14:16:40;;;;;;;6.45;1.15;;;;;;;;;;5085308;28;20131;-70
2023/03/15 14:19:15;;;;;;;7.28;1.05;;;;;;;;;;5089519;28;20107;-70
2023/03/15 14:21:43;;;;;;;6.63;0.98;;;;;;;;;;5077137;28;20032;-70
2023/03/15 14:24:17;;;;;;;5.88;1.20;;;;;;;;;;5079587;28;20137;-70
2023/03/15 14:26:44;;;;;;;5.25;1.25;;;;;;;;;;5090283;28;20027;-70
2023/03/15 14:29:27;;;;;;;3.40;1.00;;;;;;;;;;5081911;28;20048;-70
2023/03/15 14:31:53;;;;;;;2.35;0.80;;;;;;;;;;5082515;28;20028;-70
2023/03/15 14:34:32;;;;;;;3.10;0.90;;;;;;;;;;5088983;28;20479;-70
2023/03/15 14:37:03;;;;;;;3.78;0.95;;;;;;;;;;5088750;28;20145;-70
2023/03/15 14:39:38;;;;;;;5.43;1.92;;;;;;;;;;5087196;28;20056;-70
2023/03/15 14:42:05;;;;;;;7.88;1.05;;;;;;;;;;5079767;28;20031;-70
2023/03/15 14:44:31;;;;;;;3.30;0.80;;;;;;;;;;5089698;28;20035;-70
2023/03/15 14:46:57;;;;;;;5.78;1.33;;;;;;;;;;5090172;28;20069;-70
2023/03/15 14:49:27;;;;;;;3.90;1.10;;;;;;;;;;5078452;28;20072;-70
2023/03/15 14:51:59;;;;;;;5.45;1.13;;;;;;;;;;5089100;28;20031;-70
2023/03/15 14:54:27;;;;;;;4.83;1.97;;;;;;;;;;5084254;28;20085;-70
2023/03/15 14:56:53;;;;;;;4.85;1.02;;;;;;;;;;5082306;28;20029;-70
2023/03/15 14:59:19;;;;;;;2.60;0.68;;;;;;;;;;5083566;28;20028;-70